createdAt,value
2022-12-08T00:01:42.773Z,100340.03
2022-12-08T00:04:11.529Z,100330.53
2022-12-08T00:07:00.798Z,100338.28
2022-12-08T00:09:38.571Z,100334.53
2022-12-08T00:12:09.308Z,100328.69
2022-12-08T00:14:45.283Z,100331.72
2022-12-08T00:17:15.578Z,100333.72
2022-12-08T00:19:44.211Z,100329.19
2022-12-08T00:22:13.188Z,100333.53
2022-12-08T00:24:44.680Z,100330.53
2022-12-08T00:27:15.088Z,100333.78
2022-12-08T00:29:44.706Z,100326.44
2022-12-08T00:32:13.183Z,100315.72
2022-12-08T00:34:48.823Z,100320.09
2022-12-08T00:37:16.747Z,100307.03
2022-12-08T00:39:46.071Z,100323.31
2022-12-08T00:42:14.056Z,100314.81
2022-12-08T00:44:42.550Z,100315.72
2022-12-08T00:47:11.255Z,100312.59
2022-12-08T00:49:39.395Z,100309.28
2022-12-08T00:52:08.835Z,100311.75
2022-12-08T00:54:42.367Z,100317.34
2022-12-08T00:57:11.668Z,100310.59
2022-12-08T00:59:41.520Z,100313.78
2022-12-08T01:02:09.435Z,100310.34
2022-12-08T01:04:39.890Z,100305.72
2022-12-08T01:07:07.781Z,100302.13
2022-12-08T01:09:36.008Z,100300.97
2022-12-08T01:12:04.043Z,100303.59
2022-12-08T01:14:33.469Z,100300.34
2022-12-08T01:17:01.548Z,100302.06
2022-12-08T01:19:30.736Z,100300.34
2022-12-08T01:21:58.786Z,100306.69
2022-12-08T01:24:26.979Z,100306.06
2022-12-08T01:26:54.992Z,100300.59
2022-12-08T01:29:22.883Z,100300.78
2022-12-08T01:31:52.299Z,100296.63
2022-12-08T01:34:20.176Z,100297.03
2022-12-08T01:36:48.247Z,100290.50
2022-12-08T01:39:18.619Z,100293.13
2022-12-08T01:41:47.622Z,100284.31
2022-12-08T01:45:04.361Z,100280.28
2022-12-08T01:47:48.392Z,100280.06
2022-12-08T01:50:20.034Z,100277.59
2022-12-08T01:52:51.165Z,100280.69
2022-12-08T01:55:23.917Z,100271.25
2022-12-08T01:57:57.186Z,100269.63
2022-12-08T02:00:26.096Z,100267.50
2022-12-08T02:02:59.814Z,100258.25
2022-12-08T02:05:30.418Z,100260.25
2022-12-08T02:08:00.034Z,100251.88
2022-12-08T02:10:30.893Z,100256.44
2022-12-08T02:13:01.280Z,100244.72
2022-12-08T02:15:37.815Z,100248.97
2022-12-08T02:18:20.533Z,100251.81
2022-12-08T02:20:58.098Z,100250.72
2022-12-08T02:23:35.574Z,100246.44
2022-12-08T02:26:35.077Z,100245.00
2022-12-08T02:29:38.201Z,100240.63
2022-12-08T02:32:26.042Z,100237.38
2022-12-08T02:35:03.970Z,100230.78
2022-12-08T02:37:36.223Z,100227.28
2022-12-08T02:40:12.729Z,100231.78
2022-12-08T02:42:47.858Z,100223.44
2022-12-08T02:45:21.480Z,100230.91
2022-12-08T02:47:50.388Z,100225.06
2022-12-08T02:50:19.842Z,100213.28
2022-12-08T02:52:49.080Z,100214.00
2022-12-08T02:55:23.994Z,100205.56
2022-12-08T02:58:12.403Z,100197.97
2022-12-08T03:00:53.028Z,100199.25
2022-12-08T03:03:29.239Z,100198.50
2022-12-08T03:06:06.920Z,100194.25
2022-12-08T03:08:42.209Z,100182.53
2022-12-08T03:11:16.202Z,100174.34
2022-12-08T03:13:47.337Z,100173.50
2022-12-08T03:16:19.262Z,100174.03
2022-12-08T03:18:50.717Z,100174.94
2022-12-08T03:21:22.748Z,100175.09
2022-12-08T03:23:54.519Z,100172.50
2022-12-08T03:26:29.989Z,100177.13
2022-12-08T03:28:58.740Z,100172.56
2022-12-08T03:31:30.609Z,100171.13
2022-12-08T03:34:00.429Z,100165.94
2022-12-08T03:36:30.101Z,100165.53
2022-12-08T03:38:58.018Z,100167.84
2022-12-08T03:41:26.062Z,100164.03
2022-12-08T03:43:55.391Z,100162.41
2022-12-08T03:48:52.822Z,100149.72
2022-12-08T03:51:21.121Z,100145.78
2022-12-08T03:53:50.990Z,100142.16
2022-12-08T03:56:24.538Z,100134.75
2022-12-08T03:58:53.448Z,100126.91
2022-12-08T04:01:22.101Z,100131.25
2022-12-08T04:03:50.598Z,100133.16
2022-12-08T04:06:19.088Z,100138.06
2022-12-08T04:08:47.577Z,100129.09
2022-12-08T04:11:17.217Z,100122.13
2022-12-08T04:13:45.617Z,100116.25
2022-12-08T04:16:16.934Z,100116.19
2022-12-08T04:18:44.938Z,100119.38
2022-12-08T04:21:13.232Z,100111.03
2022-12-08T04:23:41.455Z,100115.88
2022-12-08T04:26:10.194Z,100107.72
2022-12-08T04:28:39.586Z,100118.50
2022-12-08T04:31:07.972Z,100118.31
2022-12-08T04:33:36.173Z,100113.41
2022-12-08T04:36:04.300Z,100106.94
2022-12-08T04:38:32.566Z,100101.81
2022-12-08T04:41:00.542Z,100106.22
2022-12-08T04:43:28.516Z,100110.72
2022-12-08T04:45:57.942Z,100113.50
2022-12-08T04:48:26.314Z,100112.06
2022-12-08T04:50:54.247Z,100098.72
2022-12-08T04:53:22.442Z,100107.59
2022-12-08T04:55:50.363Z,100102.47
2022-12-08T04:58:20.609Z,100100.53
2022-12-08T05:00:49.511Z,100093.31
2022-12-08T05:03:21.443Z,100097.75
2022-12-08T05:05:54.733Z,100098.38
2022-12-08T05:08:23.082Z,100097.13
2022-12-08T05:10:51.085Z,100101.91
2022-12-08T05:13:19.063Z,100086.06
2022-12-08T05:15:46.971Z,100092.88
2022-12-08T05:18:15.736Z,100090.63
2022-12-08T05:20:45.344Z,100091.03
2022-12-08T05:23:13.357Z,100099.69
2022-12-08T05:25:41.529Z,100103.19
2022-12-08T05:28:39.657Z,100091.84
2022-12-08T05:30:58.088Z,100089.75
2022-12-08T05:33:26.182Z,100095.00
2022-12-08T05:35:55.648Z,100090.09
2022-12-08T05:38:23.829Z,100088.22
2022-12-08T05:40:51.813Z,100088.34
2022-12-08T05:43:19.710Z,100077.91
2022-12-08T05:45:47.851Z,100087.78
2022-12-08T05:48:16.191Z,100086.31
2022-12-08T05:50:47.755Z,100085.63
2022-12-08T05:53:17.506Z,100085.69
2022-12-08T05:55:45.768Z,100076.44
2022-12-08T05:58:16.915Z,100087.78
2022-12-08T06:00:46.527Z,100075.78
2022-12-08T06:03:16.430Z,100079.59
2022-12-08T06:05:46.384Z,100074.28
2022-12-08T06:08:15.105Z,100072.03
2022-12-08T06:10:45.909Z,100074.84
2022-12-08T06:13:14.765Z,100079.56
2022-12-08T06:15:43.122Z,100074.66
2022-12-08T06:18:12.267Z,100073.97
2022-12-08T06:20:40.282Z,100073.00
2022-12-08T06:23:08.378Z,100075.66
2022-12-08T06:25:36.284Z,100071.72
2022-12-08T06:28:08.582Z,100071.31
2022-12-08T06:30:36.708Z,100081.94
2022-12-08T06:33:04.847Z,100081.19
2022-12-08T06:35:33.155Z,100076.53
2022-12-08T06:38:01.229Z,100071.22
2022-12-08T06:40:29.432Z,100081.97
2022-12-08T06:42:57.517Z,100070.75
2022-12-08T06:45:27.174Z,100080.69
2022-12-08T06:47:55.295Z,100076.53
2022-12-08T06:50:25.796Z,100067.41
2022-12-08T06:53:03.127Z,100070.66
2022-12-08T06:58:21.538Z,100074.94
2022-12-08T07:00:51.247Z,100075.41
2022-12-08T07:03:19.346Z,100080.53
2022-12-08T07:05:47.675Z,100085.66
2022-12-08T07:08:15.820Z,100083.75
2022-12-08T07:10:47.197Z,100082.63
2022-12-08T07:13:15.878Z,100089.25
2022-12-08T07:15:43.823Z,100085.81
2022-12-08T07:18:13.144Z,100097.94
2022-12-08T07:20:41.319Z,100087.38
2022-12-08T07:23:09.229Z,100093.47
2022-12-08T07:25:40.250Z,100089.88
2022-12-08T07:28:11.959Z,100090.50
2022-12-08T07:30:40.355Z,100093.75
2022-12-08T07:33:08.365Z,100095.66
2022-12-08T07:35:37.860Z,100091.84
2022-12-08T07:38:05.810Z,100097.47
2022-12-08T07:40:33.880Z,100093.91
2022-12-08T07:43:06.346Z,100085.56
2022-12-08T07:45:34.358Z,100082.69
2022-12-08T07:48:02.284Z,100092.41
2022-12-08T07:50:30.217Z,100088.59
2022-12-08T07:52:59.541Z,100086.84
2022-12-08T07:55:27.824Z,100083.94
2022-12-08T07:57:55.930Z,100087.34
2022-12-08T08:00:24.149Z,100085.22
2022-12-08T08:02:52.092Z,100086.31
2022-12-08T08:05:20.666Z,100089.97
2022-12-08T08:07:48.684Z,100091.03
2022-12-08T08:10:19.245Z,100093.72
2022-12-08T08:12:47.599Z,100093.03
2022-12-08T08:15:15.660Z,100090.97
2022-12-08T08:17:43.640Z,100101.81
2022-12-08T08:20:12.519Z,100097.75
2022-12-08T08:22:40.444Z,100105.38
2022-12-08T08:25:09.206Z,100098.38
2022-12-08T08:27:38.547Z,100103.50
2022-12-08T08:30:08.573Z,100093.56
2022-12-08T08:32:36.925Z,100105.78
2022-12-08T08:35:05.801Z,100093.19
2022-12-08T08:37:33.840Z,100089.75
2022-12-08T08:40:02.265Z,100093.56
2022-12-08T08:42:30.396Z,100101.03
2022-12-08T08:44:59.904Z,100092.25
2022-12-08T08:47:28.003Z,100092.25
2022-12-08T08:49:55.957Z,100095.94
2022-12-08T08:52:24.096Z,100097.75
2022-12-08T08:54:52.059Z,100100.88
2022-12-08T08:57:25.325Z,100099.66
2022-12-08T08:59:53.959Z,100100.44
2022-12-08T09:02:23.426Z,100097.00
2022-12-08T09:04:51.437Z,100092.78
2022-12-08T09:07:19.702Z,100089.88
2022-12-08T09:09:47.883Z,100088.22
2022-12-08T09:12:15.988Z,100090.88
2022-12-08T09:14:44.012Z,100079.72
2022-12-08T09:17:11.951Z,100074.81
2022-12-08T09:19:41.517Z,100067.84
2022-12-08T09:22:09.518Z,100062.38
2022-12-08T09:24:37.492Z,100063.38
2022-12-08T09:27:05.581Z,100070.78
2022-12-08T09:29:36.251Z,100070.13
2022-12-08T09:32:04.764Z,100058.28
2022-12-08T09:34:32.868Z,100061.31
2022-12-08T09:37:02.342Z,100054.81
2022-12-08T09:39:30.390Z,100055.34
2022-12-08T09:42:01.661Z,100054.75
2022-12-08T09:44:51.652Z,100059.72
2022-12-08T09:47:23.199Z,100059.25
2022-12-08T09:49:58.172Z,100050.88
2022-12-08T09:52:32.423Z,100057.19
2022-12-08T09:55:05.509Z,100054.22
2022-12-08T09:57:33.451Z,100054.66
2022-12-08T10:00:07.081Z,100049.03
2022-12-08T10:02:35.388Z,100058.09
2022-12-08T10:05:03.361Z,100045.13
2022-12-08T10:07:40.182Z,100050.50
2022-12-08T10:10:20.959Z,100045.47
2022-12-08T10:12:55.176Z,100044.53
2022-12-08T10:15:41.377Z,100047.22
2022-12-08T10:18:16.864Z,100043.72
2022-12-08T10:20:51.220Z,100049.59
2022-12-08T10:23:34.354Z,100045.72
2022-12-08T10:26:04.529Z,100047.31
2022-12-08T10:28:34.121Z,100049.41
2022-12-08T10:31:02.295Z,100040.16
2022-12-08T10:33:34.116Z,100035.91
2022-12-08T10:36:03.160Z,100034.41
2022-12-08T10:38:33.888Z,100023.94
2022-12-08T10:41:06.023Z,100029.63
2022-12-08T10:43:35.257Z,100025.94
2022-12-08T10:46:12.360Z,100023.50
2022-12-08T10:48:49.946Z,100021.72
2022-12-08T10:51:27.765Z,100020.81
2022-12-08T10:53:57.747Z,100016.81
2022-12-08T10:56:28.670Z,100015.63
2022-12-08T10:59:12.821Z,100023.41
2022-12-08T11:01:42.103Z,100018.06
2022-12-08T11:04:16.610Z,100015.22
2022-12-08T11:06:45.253Z,100017.63
2022-12-08T11:09:38.287Z,100015.03
2022-12-08T11:12:14.625Z,100016.72
2022-12-08T11:14:52.002Z,100013.34
2022-12-08T11:17:27.359Z,100011.91
2022-12-08T11:20:00.560Z,100007.81
2022-12-08T11:22:32.969Z,100011.44
2022-12-08T11:25:04.825Z,100004.22
2022-12-08T11:27:34.667Z,99999.09
2022-12-08T11:30:03.693Z,100004.63
2022-12-08T11:32:34.639Z,99999.09
2022-12-08T11:35:05.270Z,99990.13
2022-12-08T11:37:38.595Z,99995.31
2022-12-08T11:40:16.393Z,99997.34
2022-12-08T11:42:52.985Z,99991.28
2022-12-08T11:45:26.610Z,99992.88
2022-12-08T11:48:04.907Z,99993.50
2022-12-08T11:50:42.852Z,99993.97
2022-12-08T11:53:21.361Z,99999.94
2022-12-08T11:55:56.381Z,100003.38
2022-12-08T11:58:27.763Z,100002.44
2022-12-08T12:00:55.825Z,99992.38
2022-12-08T12:03:30.393Z,99998.88
2022-12-08T12:06:37.645Z,99999.94
2022-12-08T12:09:13.572Z,100004.75
2022-12-08T12:12:11.747Z,99992.91
2022-12-08T12:15:26.860Z,99997.91
2022-12-08T12:17:59.196Z,99995.31
2022-12-08T12:20:31.880Z,99995.00
2022-12-08T12:23:06.134Z,99999.09
2022-12-08T12:25:36.061Z,99998.75
2022-12-08T12:28:09.259Z,99996.66
2022-12-08T12:30:54.469Z,100003.28
2022-12-08T12:33:24.467Z,99999.63
2022-12-08T12:35:56.346Z,99998.09
2022-12-08T12:38:44.807Z,100008.50
2022-12-08T12:41:16.359Z,100008.16
2022-12-08T12:44:11.514Z,99997.00
2022-12-08T12:46:53.334Z,99985.59
2022-12-08T12:50:05.743Z,99993.16
2022-12-08T12:52:51.512Z,99991.88
2022-12-08T12:55:53.803Z,99993.16
2022-12-08T12:58:42.554Z,99995.56
2022-12-08T13:01:51.644Z,99987.78
2022-12-08T13:04:20.172Z,99998.50
2022-12-08T13:06:50.877Z,99987.53
2022-12-08T13:09:25.316Z,99994.84
2022-12-08T13:11:56.820Z,99994.50
2022-12-08T13:14:31.178Z,99990.22
2022-12-08T13:17:03.510Z,99987.44
2022-12-08T13:19:36.343Z,99983.25
2022-12-08T13:22:04.533Z,99989.88
2022-12-08T13:24:35.739Z,99990.47
2022-12-08T13:27:34.119Z,99984.84
2022-12-08T13:30:44.393Z,99991.56
2022-12-08T13:33:19.137Z,99990.72
2022-12-08T13:36:02.563Z,99988.38
2022-12-08T13:38:35.441Z,99987.03
2022-12-08T13:41:12.859Z,99985.59
2022-12-08T13:51:07.004Z,99999.88
2022-12-08T13:58:33.292Z,100001.19
2022-12-08T14:01:07.067Z,100002.38
2022-12-08T14:04:12.396Z,99994.75
2022-12-08T14:06:39.482Z,99990.47
2022-12-08T14:09:12.506Z,99996.84
2022-12-08T14:11:43.418Z,99991.72
2022-12-08T14:14:32.760Z,100002.03
2022-12-08T14:17:07.489Z,100002.38
2022-12-08T14:19:36.751Z,100006.31
2022-12-08T14:22:13.030Z,100000.19
2022-12-08T14:24:41.835Z,100002.13
2022-12-08T14:27:15.836Z,100009.50
2022-12-08T14:29:45.756Z,100004.63
2022-12-08T14:32:32.771Z,100004.88
2022-12-08T14:35:03.298Z,100007.16
2022-12-08T14:37:34.795Z,100011.03
2022-12-08T14:40:07.909Z,100004.38
2022-12-08T14:42:44.438Z,100007.16
2022-12-08T14:45:14.922Z,100009.31
2022-12-08T14:47:43.405Z,100012.44
2022-12-08T14:50:43.645Z,100014.53
2022-12-08T14:53:15.887Z,100008.66
2022-12-08T14:55:45.681Z,100014.38
2022-12-08T14:58:20.739Z,100011.44
2022-12-08T15:00:52.147Z,100013.53
2022-12-08T15:03:23.437Z,100024.50
2022-12-08T15:05:53.561Z,100014.19
2022-12-08T15:08:23.305Z,100020.16
2022-12-08T15:11:18.775Z,100022.75
2022-12-08T15:13:47.913Z,100028.69
2022-12-08T15:16:26.500Z,100030.13
2022-12-08T15:19:04.266Z,100024.56
2022-12-08T15:21:58.041Z,100027.97
2022-12-08T15:24:30.563Z,100021.22
2022-12-08T15:26:58.887Z,100023.06
2022-12-08T15:29:29.895Z,100029.44
2022-12-08T15:31:59.716Z,100030.56
2022-12-08T15:34:28.029Z,100031.22
2022-12-08T15:36:57.862Z,100034.31
2022-12-08T15:39:33.226Z,100034.91
2022-12-08T15:42:02.456Z,100039.38
2022-12-08T15:44:32.501Z,100045.03
2022-12-08T15:47:01.070Z,100044.72
2022-12-08T15:49:29.223Z,100048.09
2022-12-08T15:52:08.091Z,100044.47
2022-12-08T15:54:40.697Z,100045.81
2022-12-08T15:57:53.037Z,100047.56
2022-12-08T16:00:51.282Z,100047.56
2022-12-08T16:04:08.926Z,100045.81
2022-12-08T16:07:12.949Z,100043.44
2022-12-08T16:09:12.406Z,100051.22
2022-12-08T16:12:09.435Z,100039.69
2022-12-08T16:17:26.996Z,100044.84
2022-12-08T16:19:55.246Z,100049.53
2022-12-08T16:25:18.857Z,100052.19
2022-12-08T16:28:29.498Z,100052.44
2022-12-08T16:30:39.822Z,100063.91
2022-12-08T16:33:08.012Z,100057.19
2022-12-08T16:35:36.144Z,100059.03
2022-12-08T16:38:04.593Z,100057.66
2022-12-08T16:40:32.835Z,100063.91
2022-12-08T16:43:01.463Z,100062.81
2022-12-08T16:45:30.706Z,100066.41
2022-12-08T16:48:00.503Z,100065.44
2022-12-08T16:50:31.364Z,100065.50
2022-12-08T16:53:01.758Z,100059.78
2022-12-08T16:55:30.257Z,100064.41
2022-12-08T16:57:59.483Z,100065.66
2022-12-08T17:00:30.715Z,100065.41
2022-12-08T17:02:59.110Z,100067.84
2022-12-08T17:05:27.763Z,100071.88
2022-12-08T17:07:55.984Z,100076.91
2022-12-08T17:10:25.841Z,100076.53
2022-12-08T17:12:54.203Z,100069.69
2022-12-08T17:15:25.529Z,100080.63
2022-12-08T17:17:55.535Z,100076.28
2022-12-08T17:20:25.584Z,100079.81
2022-12-08T17:22:55.178Z,100082.06
2022-12-08T17:25:23.157Z,100079.91
2022-12-08T17:27:51.612Z,100081.44
2022-12-08T17:30:19.655Z,100083.91
2022-12-08T17:32:47.652Z,100089.09
2022-12-08T17:35:17.051Z,100084.19
2022-12-08T17:37:45.059Z,100090.09
2022-12-08T17:40:13.318Z,100093.28
2022-12-08T17:42:42.234Z,100093.75
2022-12-08T17:45:11.133Z,100088.16
2022-12-08T17:47:39.235Z,100092.31
2022-12-08T17:50:08.553Z,100091.69
2022-12-08T17:52:38.583Z,100085.91
2022-12-08T17:55:07.934Z,100089.19
2022-12-08T17:57:35.953Z,100091.31
2022-12-08T18:00:05.389Z,100088.41
2022-12-08T18:02:40.045Z,100091.53
2022-12-08T18:05:08.669Z,100094.06
2022-12-08T18:07:38.171Z,100097.34
2022-12-08T18:10:07.499Z,100097.63
2022-12-08T18:12:35.662Z,100100.78
2022-12-08T18:15:05.012Z,100101.72
2022-12-08T18:17:33.031Z,100101.78
2022-12-08T18:20:00.975Z,100102.19
2022-12-08T18:22:29.051Z,100099.69
2022-12-08T18:24:58.661Z,100096.06
2022-12-08T18:27:26.725Z,100091.44
2022-12-08T18:29:54.741Z,100088.13
2022-12-08T18:32:23.689Z,100090.88
2022-12-08T18:34:51.863Z,100097.63
2022-12-08T18:37:19.932Z,100101.34
2022-12-08T18:39:48.061Z,100109.50
2022-12-08T18:42:28.185Z,100106.22
2022-12-08T18:45:01.577Z,100108.19
2022-12-08T18:47:32.217Z,100106.47
2022-12-08T18:50:00.443Z,100107.69
2022-12-08T18:52:32.362Z,100115.16
2022-12-08T18:55:08.247Z,100112.97
2022-12-08T18:57:38.969Z,100110.19
2022-12-08T19:00:09.086Z,100120.97
2022-12-08T19:02:38.315Z,100121.72
2022-12-08T19:05:07.636Z,100113.34
2022-12-08T19:07:35.861Z,100122.56
2022-12-08T19:10:05.441Z,100119.38
2022-12-08T19:12:34.035Z,100123.16
2022-12-08T19:15:03.923Z,100132.28
2022-12-08T19:17:32.197Z,100138.72
2022-12-08T19:20:00.219Z,100142.25
2022-12-08T19:22:28.169Z,100143.66
2022-12-08T19:24:56.155Z,100135.88
2022-12-08T19:27:24.261Z,100149.34
2022-12-08T19:29:52.250Z,100151.50
2022-12-08T19:32:21.585Z,100159.34
2022-12-08T19:34:49.560Z,100161.03
2022-12-08T19:37:17.555Z,100161.03
2022-12-08T19:40:02.861Z,100161.56
2022-12-08T19:42:48.571Z,100161.91
2022-12-08T19:45:21.349Z,100158.50
2022-12-08T19:47:51.089Z,100153.84
2022-12-08T19:50:37.939Z,100167.81
2022-12-08T19:53:07.130Z,100166.34
2022-12-08T19:55:35.526Z,100168.66
2022-12-08T19:58:04.466Z,100171.25
2022-12-08T20:00:34.494Z,100173.91
2022-12-08T20:03:04.687Z,100165.13
2022-12-08T20:05:36.752Z,100171.91
2022-12-08T20:08:05.140Z,100172.00
2022-12-08T20:10:38.104Z,100167.84
2022-12-08T20:13:24.387Z,100167.91
2022-12-08T20:15:52.747Z,100168.91
2022-12-08T20:18:22.493Z,100169.94
2022-12-08T20:20:51.625Z,100169.59
2022-12-08T20:23:19.689Z,100168.13
2022-12-08T20:25:50.256Z,100171.63
2022-12-08T20:28:19.351Z,100170.56
2022-12-08T20:30:48.996Z,100170.44
2022-12-08T20:33:18.352Z,100170.31
2022-12-08T20:35:47.961Z,100168.06
2022-12-08T20:38:16.097Z,100173.16
2022-12-08T20:40:46.998Z,100175.72
2022-12-08T20:43:15.758Z,100177.53
2022-12-08T20:45:46.240Z,100183.22
2022-12-08T20:48:14.428Z,100181.81
2022-12-08T20:50:42.595Z,100187.91
2022-12-08T20:53:12.124Z,100195.69
2022-12-08T20:55:41.618Z,100197.00
2022-12-08T20:58:09.680Z,100200.56
2022-12-08T21:00:38.771Z,100200.44
2022-12-08T21:03:06.913Z,100196.31
2022-12-08T21:05:36.198Z,100198.88
2022-12-08T21:08:04.406Z,100203.25
2022-12-08T21:10:36.867Z,100213.41
2022-12-08T21:13:09.038Z,100208.28
2022-12-08T21:15:37.549Z,100211.72
2022-12-08T21:18:06.002Z,100201.47
2022-12-08T21:20:34.993Z,100208.63
2022-12-08T21:23:03.210Z,100212.22
2022-12-08T21:25:31.229Z,100219.44
2022-12-08T21:28:00.754Z,100226.28
2022-12-08T21:30:28.937Z,100222.13
2022-12-08T21:32:56.970Z,100223.50
2022-12-08T21:35:25.198Z,100215.13
2022-12-08T21:37:53.288Z,100215.63
2022-12-08T21:40:21.373Z,100217.81
2022-12-08T21:42:50.466Z,100221.13
2022-12-08T21:45:21.627Z,100222.63
2022-12-08T21:47:50.676Z,100224.69
2022-12-08T21:50:19.649Z,100234.91
2022-12-08T21:52:49.994Z,100233.50
2022-12-08T21:55:21.512Z,100233.94
2022-12-08T21:57:49.605Z,100230.78
2022-12-08T22:00:20.654Z,100236.00
2022-12-08T22:02:48.944Z,100236.28
2022-12-08T22:05:17.152Z,100232.91
2022-12-08T22:07:45.345Z,100231.41
2022-12-08T22:10:13.735Z,100238.03
2022-12-08T22:12:44.730Z,100231.81
2022-12-08T22:15:13.387Z,100233.81
2022-12-08T22:17:45.023Z,100240.69
2022-12-08T22:20:17.207Z,100236.78
2022-12-08T22:22:45.959Z,100235.19
2022-12-08T22:25:14.168Z,100233.63
2022-12-08T22:27:42.608Z,100242.50
2022-12-08T22:30:12.054Z,100236.31
2022-12-08T22:32:40.393Z,100240.22
2022-12-08T22:35:10.827Z,100239.19
2022-12-08T22:37:39.268Z,100238.22
2022-12-08T22:40:09.060Z,100226.72
2022-12-08T22:42:37.474Z,100233.94
2022-12-08T22:45:06.245Z,100245.28
2022-12-08T22:47:34.567Z,100236.78
2022-12-08T22:50:02.755Z,100235.81
2022-12-08T22:52:32.206Z,100240.97
2022-12-08T22:55:00.260Z,100238.41
2022-12-08T22:57:29.292Z,100236.91
2022-12-08T22:59:57.258Z,100243.25
2022-12-08T23:02:25.431Z,100238.69
2022-12-08T23:04:56.809Z,100236.31
2022-12-08T23:07:25.156Z,100241.16
2022-12-08T23:09:54.584Z,100232.97
2022-12-08T23:12:22.501Z,100232.06
2022-12-08T23:14:53.504Z,100234.44
2022-12-08T23:17:23.361Z,100236.78
2022-12-08T23:19:51.453Z,100232.66
2022-12-08T23:22:19.406Z,100228.59
2022-12-08T23:24:47.590Z,100226.56
2022-12-08T23:27:17.008Z,100219.34
2022-12-08T23:29:45.315Z,100221.13
2022-12-08T23:32:13.615Z,100228.72
2022-12-08T23:34:41.785Z,100224.13
2022-12-08T23:37:09.760Z,100234.38
2022-12-08T23:39:37.745Z,100219.50
2022-12-08T23:42:05.822Z,100221.84
2022-12-08T23:44:35.263Z,100225.88
2022-12-08T23:47:03.301Z,100226.22
2022-12-08T23:49:31.576Z,100227.25
2022-12-08T23:51:59.734Z,100222.66
2022-12-08T23:54:27.683Z,100226.72
2022-12-08T23:56:55.912Z,100221.91
2022-12-08T23:59:24.066Z,100219.66
